Time;durP1;ratioP1;P1;durP2;ratioP2;P2;SDS_P1;SDS_P2;PMS_P1;PMS_P2;Temp;Humidity;BMP_temperature;BMP_pressure;BME280_temperature;BME280_humidity;BME280_pressure;Samples;Min_cycle;Max_cycle;Signal;HPM_P1;HPM_P2
2023/12/23 00:01:49;;;;;;;;;;;;;;;2.82;85.13;99038.63;4195922;28;20364;-69
2023/12/23 00:03:50;;;;;;;;;;;;;;;2.83;84.88;99029.59;4195673;28;20401;-70
2023/12/23 00:05:53;;;;;;;;;;;;;;;2.82;85.38;99038.63;4198840;28;19964;-70
2023/12/23 00:07:55;;;;;;;;;;;;;;;2.83;85.26;99036.75;4198281;28;19988;-69
2023/12/23 00:09:57;;;;;;;;;;;;;;;2.84;85.51;99038.44;4197499;28;20078;-69
2023/12/23 00:12:00;;;;;;;;;;;;;;;2.85;85.23;99051.59;4194645;28;20436;-70
2023/12/23 00:14:02;;;;;;;;;;;;;;;2.83;85.45;99052.75;4196652;28;19929;-70
2023/12/23 00:16:04;;;;;;;;;;;;;;;2.86;85.46;99053.25;4197648;28;20022;-69
2023/12/23 00:18:06;;;;;;;;;;;;;;;2.86;85.15;99060.44;4196634;28;20019;-69
2023/12/23 00:20:09;;;;;;;;;;;;;;;2.89;85.48;99076.09;4196071;28;19952;-69
2023/12/23 00:22:11;;;;;;;;;;;;;;;2.88;85.14;99051.28;4196293;28;20007;-69
2023/12/23 00:24:12;;;;;;;;;;;;;;;2.88;85.44;99061.09;4197757;28;20426;-69
2023/12/23 00:26:13;;;;;;;;;;;;;;;2.88;85.50;99066.41;4197545;28;19924;-69
2023/12/23 00:28:20;;;;;;;;;;;;;;;2.87;85.60;99068.25;4197169;28;20003;-69
2023/12/23 00:30:22;;;;;;;;;;;;;;;2.86;85.51;99066.59;4197726;28;19974;-69
2023/12/23 00:32:24;;;;;;;;;;;;;;;2.86;85.70;99074.59;4198773;28;20390;-69
2023/12/23 00:34:26;;;;;;;;;;;;;;;2.87;85.78;99070.94;4197851;28;20466;-69
2023/12/23 00:36:28;;;;;;;;;;;;;;;2.85;85.69;99072.94;4196602;28;20376;-69
2023/12/23 00:38:30;;;;;;;;;;;;;;;2.85;86.00;99082.75;4205669;28;20102;-68
2023/12/23 00:40:32;;;;;;;;;;;;;;;2.84;86.08;99083.78;4194608;28;19956;-69
2023/12/23 00:42:34;;;;;;;;;;;;;;;2.84;86.25;99097.94;4194473;28;20012;-68
2023/12/23 00:44:37;;;;;;;;;;;;;;;2.84;86.33;99094.44;4189593;28;20020;-69
2023/12/23 00:46:39;;;;;;;;;;;;;;;2.84;86.21;99091.78;4198018;28;19970;-69
2023/12/23 00:48:41;;;;;;;;;;;;;;;2.83;86.26;99087.44;4196692;28;19964;-68
2023/12/23 00:50:43;;;;;;;;;;;;;;;2.83;86.35;99090.91;4197307;28;20016;-69
2023/12/23 00:52:45;;;;;;;;;;;;;;;2.82;86.41;99097.28;4205165;28;20445;-69
2023/12/23 00:54:47;;;;;;;;;;;;;;;2.83;86.33;99122.09;4195400;28;19963;-69
2023/12/23 00:56:50;;;;;;;;;;;;;;;2.83;86.51;99130.09;4189077;28;20353;-69
2023/12/23 00:58:52;;;;;;;;;;;;;;;2.82;86.57;99131.94;4196285;28;20023;-69
2023/12/23 01:00:55;;;;;;;;;;;;;;;2.84;86.66;99143.25;4197318;28;20035;-69
2023/12/23 01:02:57;;;;;;;;;;;;;;;2.87;86.44;99152.78;4212989;28;19970;-69
2023/12/23 01:04:58;;;;;;;;;;;;;;;2.87;86.58;99161.59;4195672;28;20389;-68
2023/12/23 01:07:00;;;;;;;;;;;;;;;2.87;86.51;99161.59;4196300;28;20037;-69
2023/12/23 01:09:04;;;;;;;;;;;;;;;2.86;86.30;99173.25;4213816;28;19970;-69
2023/12/23 01:11:06;;;;;;;;;;;;;;;2.88;86.24;99170.41;4194331;28;19992;-69
2023/12/23 01:13:08;;;;;;;;;;;;;;;2.88;85.91;99176.59;4192123;28;19936;-70
2023/12/23 01:15:10;;;;;;;;;;;;;;;2.88;86.12;99192.59;4196260;28;20019;-69
2023/12/23 01:17:14;;;;;;;;;;;;;;;2.88;85.86;99179.28;4196719;28;20038;-69
2023/12/23 01:19:16;;;;;;;;;;;;;;;2.93;86.00;99188.59;4196495;28;20019;-69
2023/12/23 01:21:20;;;;;;;;;;;;;;;2.95;85.79;99203.44;4194935;28;20039;-69
2023/12/23 01:23:23;;;;;;;;;;;;;;;2.96;86.06;99205.13;4195661;28;20015;-70
2023/12/23 01:25:25;;;;;;;;;;;;;;;2.97;85.79;99217.44;4195949;28;20015;-69
2023/12/23 01:27:27;;;;;;;;;;;;;;;2.95;85.24;99215.94;4195385;28;20016;-69
2023/12/23 01:29:29;;;;;;;;;;;;;;;2.96;85.27;99220.25;4195237;28;20015;-69
2023/12/23 01:31:31;;;;;;;;;;;;;;;2.95;85.12;99234.63;4196521;28;20011;-69
2023/12/23 01:33:35;;;;;;;;;;;;;;;2.95;85.00;99247.94;4195959;28;20019;-69
2023/12/23 01:35:39;;;;;;;;;;;;;;;2.96;84.66;99236.25;4195911;28;20458;-69
2023/12/23 01:37:41;;;;;;;;;;;;;;;2.98;84.40;99239.59;4195564;28;20461;-70
2023/12/23 01:39:42;;;;;;;;;;;;;;;2.98;84.51;99255.59;4194958;28;20016;-69
2023/12/23 01:41:44;;;;;;;;;;;;;;;3.00;84.37;99258.94;4194017;28;20290;-70
2023/12/23 01:43:47;;;;;;;;;;;;;;;2.98;83.95;99276.94;4194277;28;19964;-70
2023/12/23 01:45:48;;;;;;;;;;;;;;;2.95;83.82;99283.44;4195599;28;20026;-69
2023/12/23 01:47:51;;;;;;;;;;;;;;;2.94;83.78;99284.44;4196577;28;19959;-69
2023/12/23 01:49:56;;;;;;;;;;;;;;;2.95;83.48;99286.09;4196020;28;20353;-69
2023/12/23 01:51:58;;;;;;;;;;;;;;;2.95;83.39;99293.28;4195446;28;20365;-69
2023/12/23 01:54:02;;;;;;;;;;;;;;;2.98;83.25;99298.25;4195881;28;19924;-70
2023/12/23 01:56:06;;;;;;;;;;;;;;;2.95;82.92;99294.13;4195509;28;20000;-70
2023/12/23 01:58:08;;;;;;;;;;;;;;;2.98;83.14;99311.59;4196429;28;19966;-69
2023/12/23 02:00:09;;;;;;;;;;;;;;;2.97;83.23;99310.78;4196520;28;20027;-69
2023/12/23 02:02:14;;;;;;;;;;;;;;;2.94;82.84;99313.75;4194023;28;20023;-69
2023/12/23 02:04:16;;;;;;;;;;;;;;;2.95;82.59;99320.78;4195576;28;20020;-69
2023/12/23 02:06:20;;;;;;;;;;;;;;;2.94;82.67;99327.09;4194511;28;20027;-69
2023/12/23 02:08:22;;;;;;;;;;;;;;;2.96;82.86;99326.94;4194230;28;20426;-70
2023/12/23 02:10:24;;;;;;;;;;;;;;;2.96;82.65;99333.13;4195021;28;20012;-69
2023/12/23 02:12:27;;;;;;;;;;;;;;;2.96;82.74;99333.13;4194711;28;20038;-69
2023/12/23 02:14:31;;;;;;;;;;;;;;;2.95;82.38;99338.63;4179114;28;20441;-69
2023/12/23 02:16:33;;;;;;;;;;;;;;;2.95;82.34;99342.13;4196750;28;19985;-69
2023/12/23 02:18:38;;;;;;;;;;;;;;;2.94;82.32;99351.09;4197147;28;19952;-69
2023/12/23 02:20:40;;;;;;;;;;;;;;;2.96;82.25;99351.81;4197787;28;19975;-70
2023/12/23 02:22:43;;;;;;;;;;;;;;;2.96;82.54;99354.47;4196879;28;20350;-69
2023/12/23 02:24:44;;;;;;;;;;;;;;;2.98;82.58;99356.94;4197510;28;19967;-69
2023/12/23 02:26:47;;;;;;;;;;;;;;;2.97;82.55;99371.28;4197077;28;19972;-69
2023/12/23 02:28:52;;;;;;;;;;;;;;;2.96;82.15;99374.94;4197160;28;19964;-69
2023/12/23 02:30:54;;;;;;;;;;;;;;;2.95;81.88;99367.97;4194503;28;19971;-69
2023/12/23 02:32:55;;;;;;;;;;;;;;;2.95;81.91;99359.97;4195783;28;20011;-69
2023/12/23 02:34:57;;;;;;;;;;;;;;;2.92;81.82;99371.78;4196325;28;20581;-69
2023/12/23 02:36:59;;;;;;;;;;;;;;;2.92;81.77;99371.78;4196210;28;19975;-69
2023/12/23 02:39:03;;;;;;;;;;;;;;;2.91;81.79;99380.75;4197008;28;19932;-69
2023/12/23 02:41:05;;;;;;;;;;;;;;;2.93;81.83;99380.59;4196253;28;20022;-69
2023/12/23 02:43:07;;;;;;;;;;;;;;;2.95;81.81;99389.31;4188145;28;20015;-69
2023/12/23 02:45:09;;;;;;;;;;;;;;;2.96;81.78;99390.94;4197264;28;19959;-69
2023/12/23 02:47:10;;;;;;;;;;;;;;;2.95;81.59;99397.31;4213879;28;19977;-69
2023/12/23 02:49:12;;;;;;;;;;;;;;;2.95;81.37;99398.13;4199120;28;19928;-70
2023/12/23 02:51:14;;;;;;;;;;;;;;;2.97;81.40;99395.31;4194949;28;19956;-69
2023/12/23 02:53:15;;;;;;;;;;;;;;;2.94;80.90;99409.78;4200298;28;19972;-69
2023/12/23 02:55:19;;;;;;;;;;;;;;;2.94;80.46;99407.13;4199121;28;19928;-69
2023/12/23 02:57:21;;;;;;;;;;;;;;;2.96;80.44;99398.94;4199240;28;20019;-69
2023/12/23 02:59:23;;;;;;;;;;;;;;;2.99;80.61;99415.47;4198221;28;19971;-69
2023/12/23 03:01:25;;;;;;;;;;;;;;;2.98;80.60;99415.63;4198975;28;20040;-69
2023/12/23 03:03:27;;;;;;;;;;;;;;;2.96;80.29;99426.47;4197297;28;20414;-69
2023/12/23 03:05:29;;;;;;;;;;;;;;;2.95;79.94;99429.31;4197930;28;20034;-69
2023/12/23 03:07:31;;;;;;;;;;;;;;;2.97;79.78;99437.97;4198551;28;20012;-69
2023/12/23 03:09:34;;;;;;;;;;;;;;;2.97;79.65;99429.97;4198699;28;20019;-69
2023/12/23 03:11:37;;;;;;;;;;;;;;;3.00;79.91;99429.66;4196842;28;20686;-69
2023/12/23 03:13:39;;;;;;;;;;;;;;;2.99;80.02;99434.13;4196626;28;20440;-69
2023/12/23 03:15:41;;;;;;;;;;;;;;;2.99;80.10;99447.47;4199068;28;20022;-69
2023/12/23 03:17:43;;;;;;;;;;;;;;;2.95;79.70;99442.66;4198628;28;20070;-69
2023/12/23 03:19:45;;;;;;;;;;;;;;;2.94;79.85;99440.97;4197180;28;20028;-69
2023/12/23 03:21:48;;;;;;;;;;;;;;;2.91;79.10;99449.28;4194539;28;19929;-69
2023/12/23 03:23:49;;;;;;;;;;;;;;;2.92;79.36;99453.63;4199217;28;19964;-70
2023/12/23 03:25:51;;;;;;;;;;;;;;;2.89;79.28;99449.44;4197967;28;19928;-69
2023/12/23 03:27:54;;;;;;;;;;;;;;;2.89;79.36;99455.59;4214423;28;20018;-69
2023/12/23 03:29:56;;;;;;;;;;;;;;;2.84;78.69;99463.25;4199083;28;19971;-70
2023/12/23 03:31:58;;;;;;;;;;;;;;;2.87;78.85;99459.44;4181098;28;19967;-69
2023/12/23 03:34:00;;;;;;;;;;;;;;;2.85;78.92;99474.75;4206218;28;20384;-69
2023/12/23 03:36:03;;;;;;;;;;;;;;;2.82;78.54;99475.91;4195295;28;19925;-69
2023/12/23 03:38:05;;;;;;;;;;;;;;;2.82;78.73;99470.56;4197256;28;20039;-69
2023/12/23 03:40:08;;;;;;;;;;;;;;;2.82;78.82;99480.38;4196851;28;20023;-69
2023/12/23 03:42:10;;;;;;;;;;;;;;;2.80;78.90;99496.53;4196004;28;20020;-69
2023/12/23 03:44:13;;;;;;;;;;;;;;;2.81;78.98;99497.41;4197742;28;19988;-69
2023/12/23 03:46:16;;;;;;;;;;;;;;;2.80;79.35;99503.72;4197860;28;20015;-69
2023/12/23 03:48:18;;;;;;;;;;;;;;;2.81;79.20;99500.06;4198455;28;19971;-70
2023/12/23 03:50:20;;;;;;;;;;;;;;;2.79;79.27;99508.22;4197507;28;20019;-69
2023/12/23 03:52:22;;;;;;;;;;;;;;;2.78;79.18;99506.53;4196357;28;20439;-69
2023/12/23 03:54:24;;;;;;;;;;;;;;;2.79;79.08;99520.69;4198174;28;19979;-69
2023/12/23 03:56:26;;;;;;;;;;;;;;;2.78;78.85;99521.72;4197877;28;19924;-70
2023/12/23 03:58:27;;;;;;;;;;;;;;;2.74;78.43;99513.16;4189593;28;19989;-70
2023/12/23 04:00:30;;;;;;;;;;;;;;;2.75;78.49;99511.38;4197949;28;20023;-69
2023/12/23 04:02:31;;;;;;;;;;;;;;;2.74;78.41;99502.50;4212948;28;20026;-69
2023/12/23 04:04:33;;;;;;;;;;;;;;;2.74;78.26;99507.84;4197281;28;20347;-69
2023/12/23 04:06:35;;;;;;;;;;;;;;;2.74;78.33;99509.69;4197424;28;19967;-69
2023/12/23 04:08:36;;;;;;;;;;;;;;;2.75;78.32;99509.53;4197111;28;20015;-69
2023/12/23 04:10:38;;;;;;;;;;;;;;;2.75;78.62;99503.38;4197409;28;20011;-69
2023/12/23 04:12:40;;;;;;;;;;;;;;;2.79;78.74;99510.03;4196874;28;20024;-69
2023/12/23 04:14:42;;;;;;;;;;;;;;;2.77;78.61;99506.69;4196566;28;20001;-69
2023/12/23 04:16:45;;;;;;;;;;;;;;;2.78;78.52;99508.38;4197168;28;20433;-69
2023/12/23 04:18:48;;;;;;;;;;;;;;;2.78;78.80;99511.03;4198007;28;20018;-69
2023/12/23 04:20:48;;;;;;;;;;;;;;;2.79;79.19;99523.38;4197055;28;20023;-69
2023/12/23 04:22:51;;;;;;;;;;;;;;;2.80;78.79;99523.22;4197464;28;20023;-69
2023/12/23 04:24:53;;;;;;;;;;;;;;;2.80;78.88;99512.53;4197784;28;19962;-69
2023/12/23 04:26:55;;;;;;;;;;;;;;;2.78;78.62;99517.22;4198036;28;19963;-69
2023/12/23 04:28:57;;;;;;;;;;;;;;;2.78;78.73;99517.22;4196751;28;20470;-69
2023/12/23 04:30:59;;;;;;;;;;;;;;;2.80;78.72;99507.22;4195176;28;20027;-69
2023/12/23 04:33:02;;;;;;;;;;;;;;;2.83;78.50;99525.56;4196203;28;19960;-69
2023/12/23 04:35:05;;;;;;;;;;;;;;;2.82;78.55;99531.06;4195836;28;20015;-69
2023/12/23 04:37:07;;;;;;;;;;;;;;;2.82;78.29;99531.06;4196330;28;20027;-69
2023/12/23 04:39:09;;;;;;;;;;;;;;;2.87;78.16;99531.44;4194379;28;20016;-69
2023/12/23 04:41:11;;;;;;;;;;;;;;;2.86;78.02;99519.91;4196557;28;19929;-69
2023/12/23 04:43:15;;;;;;;;;;;;;;;2.88;78.21;99514.44;4210033;28;20011;-69
2023/12/23 04:45:18;;;;;;;;;;;;;;;2.91;78.47;99527.44;4185042;28;20019;-70
2023/12/23 04:47:20;;;;;;;;;;;;;;;2.88;78.15;99528.63;4196314;28;20015;-69
2023/12/23 04:49:24;;;;;;;;;;;;;;;2.86;77.77;99514.59;4179549;28;20421;-69
2023/12/23 04:51:26;;;;;;;;;;;;;;;2.91;78.25;99526.63;4212858;28;20014;-69
2023/12/23 04:53:28;;;;;;;;;;;;;;;2.93;78.42;99519.28;4194941;28;20330;-69
2023/12/23 04:55:31;;;;;;;;;;;;;;;2.89;78.06;99519.59;4195947;28;20023;-69
2023/12/23 04:57:34;;;;;;;;;;;;;;;2.88;77.94;99519.75;4197976;28;19929;-69
2023/12/23 04:59:36;;;;;;;;;;;;;;;2.88;78.16;99501.09;4197241;28;20466;-69
2023/12/23 05:01:38;;;;;;;;;;;;;;;2.89;78.17;99510.78;4197648;28;20023;-69
2023/12/23 05:03:39;;;;;;;;;;;;;;;2.87;77.58;99510.09;4197220;28;20035;-69
2023/12/23 05:05:44;;;;;;;;;;;;;;;2.92;78.07;99501.63;4196172;28;20232;-69
2023/12/23 05:07:46;;;;;;;;;;;;;;;2.93;78.48;99503.28;4197118;28;20030;-69
2023/12/23 05:09:48;;;;;;;;;;;;;;;2.94;78.64;99504.97;4196354;28;20019;-69
2023/12/23 05:11:50;;;;;;;;;;;;;;;2.95;78.58;99514.66;4188351;28;20041;-69
2023/12/23 05:13:52;;;;;;;;;;;;;;;2.96;78.79;99509.16;4193546;28;20032;-69
2023/12/23 05:15:54;;;;;;;;;;;;;;;2.97;78.62;99504.66;4197475;28;20011;-69
2023/12/23 05:17:56;;;;;;;;;;;;;;;2.94;78.33;99500.47;4197746;28;20418;-69
2023/12/23 05:19:58;;;;;;;;;;;;;;;2.95;78.11;99502.16;4197270;28;20016;-69
2023/12/23 05:22:00;;;;;;;;;;;;;;;2.97;78.45;99500.16;4195790;28;20053;-69
2023/12/23 05:24:02;;;;;;;;;;;;;;;2.97;78.50;99497.47;4196970;28;20019;-69
2023/12/23 05:26:04;;;;;;;;;;;;;;;2.99;78.76;99498.16;4197309;28;20015;-69
2023/12/23 05:28:05;;;;;;;;;;;;;;;3.02;78.78;99499.69;4196663;28;20099;-69
2023/12/23 05:30:08;;;;;;;;;;;;;;;3.02;78.94;99513.84;4193382;28;20019;-69
2023/12/23 05:32:10;;;;;;;;;;;;;;;2.98;78.48;99504.50;4197035;28;20031;-69
2023/12/23 05:34:12;;;;;;;;;;;;;;;2.97;78.56;99504.66;4198955;28;19956;-69
2023/12/23 05:36:14;;;;;;;;;;;;;;;2.99;78.67;99494.66;4196345;28;20011;-69
2023/12/23 05:38:17;;;;;;;;;;;;;;;3.01;78.74;99504.19;4197080;28;19967;-69
2023/12/23 05:40:18;;;;;;;;;;;;;;;2.99;78.88;99486.66;4195540;28;20390;-69
2023/12/23 05:42:20;;;;;;;;;;;;;;;2.99;78.50;99492.00;4195124;28;19935;-69
2023/12/23 05:44:22;;;;;;;;;;;;;;;2.98;78.92;99498.31;4196063;28;20020;-69
2023/12/23 05:46:24;;;;;;;;;;;;;;;2.99;79.23;99498.16;4198031;28;19952;-69
2023/12/23 05:48:27;;;;;;;;;;;;;;;3.01;78.96;99476.66;4196677;28;19972;-69
2023/12/23 05:50:29;;;;;;;;;;;;;;;3.00;79.19;99493.66;4194741;28;20015;-69
2023/12/23 05:52:31;;;;;;;;;;;;;;;2.99;79.32;99494.66;4193970;28;20058;-69
2023/12/23 05:54:34;;;;;;;;;;;;;;;3.01;79.67;99490.00;4196851;28;20478;-69
2023/12/23 05:56:36;;;;;;;;;;;;;;;3.05;79.51;99491.34;4197295;28;19966;-69
2023/12/23 05:58:38;;;;;;;;;;;;;;;3.05;79.59;99483.34;4196666;28;19998;-69
2023/12/23 06:00:39;;;;;;;;;;;;;;;3.03;79.71;99488.03;4196756;28;20011;-69
2023/12/23 06:02:41;;;;;;;;;;;;;;;3.08;79.75;99484.88;4197262;28;19956;-69
2023/12/23 06:04:43;;;;;;;;;;;;;;;3.09;79.87;99502.53;4197916;28;19933;-69
2023/12/23 06:06:45;;;;;;;;;;;;;;;3.13;79.86;99480.72;4197310;28;19963;-69
2023/12/23 06:08:47;;;;;;;;;;;;;;;3.13;79.72;99466.56;4195907;28;19967;-69
2023/12/23 06:10:49;;;;;;;;;;;;;;;3.13;80.04;99469.22;4192474;28;19968;-69
2023/12/23 06:12:51;;;;;;;;;;;;;;;3.16;80.12;99455.56;4195806;28;19991;-69
2023/12/23 06:14:54;;;;;;;;;;;;;;;3.16;79.84;99467.06;4179571;28;20397;-69
2023/12/23 06:16:56;;;;;;;;;;;;;;;3.15;80.33;99460.06;4203212;28;19985;-69
2023/12/23 06:18:59;;;;;;;;;;;;;;;3.17;80.46;99454.56;4196653;28;20011;-69
2023/12/23 06:21:01;;;;;;;;;;;;;;;3.17;80.43;99447.41;4196634;28;19960;-69
2023/12/23 06:23:03;;;;;;;;;;;;;;;3.20;80.73;99456.91;4197192;28;20374;-69
2023/12/23 06:25:06;;;;;;;;;;;;;;;3.20;80.22;99457.75;4199120;28;20024;-69
2023/12/23 06:27:09;;;;;;;;;;;;;;;3.20;80.43;99457.75;4200094;28;19956;-69
2023/12/23 06:29:11;;;;;;;;;;;;;;;3.21;80.48;99439.91;4198710;28;19966;-69
2023/12/23 06:31:13;;;;;;;;;;;;;;;3.20;80.75;99432.91;4199872;28;20376;-69
2023/12/23 06:33:14;;;;;;;;;;;;;;;3.20;80.68;99444.41;4195758;28;20434;-69
2023/12/23 06:35:17;;;;;;;;;;;;;;;3.21;80.73;99437.22;4199318;28;19974;-69
2023/12/23 06:37:19;;;;;;;;;;;;;;;3.21;80.90;99442.56;4200317;28;19975;-69
2023/12/23 06:39:22;;;;;;;;;;;;;;;3.22;81.21;99437.06;4200131;28;19924;-69
2023/12/23 06:41:25;;;;;;;;;;;;;;;3.21;81.12;99422.06;4198355;28;19956;-69
2023/12/23 06:43:28;;;;;;;;;;;;;;;3.20;81.13;99440.91;4198910;28;19967;-69
2023/12/23 06:45:30;;;;;;;;;;;;;;;3.21;80.97;99438.09;4199511;28;19951;-69
2023/12/23 06:47:32;;;;;;;;;;;;;;;3.22;81.06;99431.72;4198267;28;19963;-68
2023/12/23 06:49:34;;;;;;;;;;;;;;;3.24;80.98;99426.22;4197246;28;19975;-69
2023/12/23 06:51:36;;;;;;;;;;;;;;;3.22;81.00;99431.72;4199140;28;19967;-69
2023/12/23 06:53:39;;;;;;;;;;;;;;;3.22;81.14;99434.41;4199455;28;20027;-69
2023/12/23 06:55:40;;;;;;;;;;;;;;;3.21;81.44;99434.56;4198692;28;20421;-69
2023/12/23 06:57:42;;;;;;;;;;;;;;;3.19;81.22;99426.72;4214896;28;20019;-69
2023/12/23 06:59:46;;;;;;;;;;;;;;;3.21;81.54;99431.88;4198553;28;20708;-68
2023/12/23 07:01:49;;;;;;;;;;;;;;;3.21;81.53;99438.09;4197861;28;19963;-69
2023/12/23 07:03:51;;;;;;;;;;;;;;;3.22;81.34;99438.91;4197846;28;20426;-69
2023/12/23 07:05:53;;;;;;;;;;;;;;;3.22;81.61;99431.72;4198712;28;19967;-69
2023/12/23 07:07:54;;;;;;;;;;;;;;;3.22;81.26;99418.38;4197988;28;20018;-69
2023/12/23 07:09:57;;;;;;;;;;;;;;;3.22;81.33;99433.56;4199570;28;19928;-69
2023/12/23 07:11:59;;;;;;;;;;;;;;;3.21;81.65;99429.22;4196525;28;19975;-69
2023/12/23 07:14:01;;;;;;;;;;;;;;;3.23;81.55;99430.75;4197616;28;19963;-69
2023/12/23 07:16:05;;;;;;;;;;;;;;;3.25;81.29;99427.91;4197697;28;20358;-69
2023/12/23 07:18:07;;;;;;;;;;;;;;;3.29;81.44;99431.09;4199193;28;19991;-68
2023/12/23 07:20:09;;;;;;;;;;;;;;;3.26;81.33;99429.59;4197182;28;19924;-68
2023/12/23 07:22:11;;;;;;;;;;;;;;;3.28;81.37;99416.91;4196492;28;20023;-68
2023/12/23 07:24:13;;;;;;;;;;;;;;;3.25;81.35;99430.59;4198460;28;20019;-69
2023/12/23 07:26:15;;;;;;;;;;;;;;;3.27;81.51;99433.09;4192478;28;19967;-69
2023/12/23 07:28:17;;;;;;;;;;;;;;;3.27;81.75;99427.75;4197166;28;20020;-68
2023/12/23 07:30:19;;;;;;;;;;;;;;;3.24;81.57;99429.75;4197542;28;20007;-69
2023/12/23 07:32:23;;;;;;;;;;;;;;;3.26;81.80;99413.59;4196755;28;20453;-69
2023/12/23 07:34:25;;;;;;;;;;;;;;;3.27;81.61;99406.41;4197788;28;20019;-68
2023/12/23 07:36:27;;;;;;;;;;;;;;;3.25;81.98;99426.06;4199202;28;19956;-69
2023/12/23 07:38:29;;;;;;;;;;;;;;;3.23;82.03;99411.25;4198019;28;20015;-69
2023/12/23 07:40:31;;;;;;;;;;;;;;;3.22;82.20;99405.03;4197891;28;20434;-69
2023/12/23 07:42:33;;;;;;;;;;;;;;;3.22;81.95;99418.38;4196214;28;20011;-69
2023/12/23 07:44:36;;;;;;;;;;;;;;;3.24;81.91;99421.75;4197550;28;20043;-69
2023/12/23 07:46:38;;;;;;;;;;;;;;;3.25;82.11;99407.38;4196847;28;20015;-69
2023/12/23 07:48:41;;;;;;;;;;;;;;;3.29;82.10;99407.06;4197130;28;20015;-69
2023/12/23 07:50:43;;;;;;;;;;;;;;;3.29;81.85;99401.72;4198453;28;20007;-69
2023/12/23 07:52:44;;;;;;;;;;;;;;;3.31;82.13;99400.56;4197505;28;20438;-69
2023/12/23 07:54:46;;;;;;;;;;;;;;;3.31;81.90;99408.59;4195314;28;20007;-68
2023/12/23 07:56:48;;;;;;;;;;;;;;;3.34;82.07;99407.41;4197875;28;20560;-69
2023/12/23 07:58:50;;;;;;;;;;;;;;;3.31;82.12;99389.91;4195558;28;20027;-69
2023/12/23 08:00:52;;;;;;;;;;;;;;;3.28;82.23;99394.75;4196515;28;19970;-69
2023/12/23 08:02:54;;;;;;;;;;;;;;;3.27;82.08;99401.88;4188869;28;20011;-68
2023/12/23 08:04:57;;;;;;;;;;;;;;;3.26;82.27;99394.91;4195784;28;20036;-69
2023/12/23 08:06:59;;;;;;;;;;;;;;;3.25;82.21;99396.72;4196548;28;20007;-69
2023/12/23 08:09:01;;;;;;;;;;;;;;;3.21;82.50;99395.38;4196973;28;20438;-69
2023/12/23 08:11:03;;;;;;;;;;;;;;;3.21;82.43;99395.38;4195583;28;20011;-69
2023/12/23 08:13:06;;;;;;;;;;;;;;;3.23;82.72;99408.56;4195186;28;20354;-69
2023/12/23 08:15:07;;;;;;;;;;;;;;;3.24;82.74;99396.88;4197337;28;20431;-69
2023/12/23 08:17:10;;;;;;;;;;;;;;;3.23;82.51;99392.56;4197639;28;20011;-69
2023/12/23 08:19:13;;;;;;;;;;;;;;;3.21;82.74;99394.53;4198505;28;20004;-69
2023/12/23 08:21:17;;;;;;;;;;;;;;;3.22;82.75;99401.56;4196683;28;20400;-69
2023/12/23 08:23:19;;;;;;;;;;;;;;;3.21;82.41;99395.38;4193994;28;20380;-69
2023/12/23 08:25:20;;;;;;;;;;;;;;;3.20;82.77;99395.56;4194980;28;20019;-69
2023/12/23 08:27:22;;;;;;;;;;;;;;;3.21;82.85;99400.72;4197387;28;20035;-69
2023/12/23 08:29:24;;;;;;;;;;;;;;;3.23;82.78;99397.91;4197407;28;20022;-69
2023/12/23 08:31:26;;;;;;;;;;;;;;;3.23;82.81;99404.06;4193576;28;20019;-70
2023/12/23 08:33:28;;;;;;;;;;;;;;;3.22;82.58;99398.88;4197607;28;20343;-69
2023/12/23 08:35:31;;;;;;;;;;;;;;;3.21;82.69;99394.53;4195640;28;20451;-69
2023/12/23 08:37:35;;;;;;;;;;;;;;;3.19;82.94;99400.03;4189133;28;20422;-69
2023/12/23 08:39:37;;;;;;;;;;;;;;;3.20;83.10;99414.22;4195578;28;20015;-69
2023/12/23 08:41:39;;;;;;;;;;;;;;;3.21;83.10;99407.88;4195621;28;20421;-68
2023/12/23 08:43:41;;;;;;;;;;;;;;;3.23;82.83;99404.06;4195840;28;19960;-68
2023/12/23 08:45:43;;;;;;;;;;;;;;;3.22;82.91;99402.38;4190347;28;20019;-68
2023/12/23 08:47:45;;;;;;;;;;;;;;;3.24;82.95;99403.06;4197011;28;20028;-68
2023/12/23 08:49:46;;;;;;;;;;;;;;;3.25;82.78;99396.72;4197517;28;20023;-68
2023/12/23 08:51:48;;;;;;;;;;;;;;;3.24;83.02;99402.22;4198596;28;20044;-68
2023/12/23 08:53:51;;;;;;;;;;;;;;;3.22;82.95;99398.88;4198164;28;20466;-68
2023/12/23 08:55:53;;;;;;;;;;;;;;;3.23;82.94;99408.56;4197426;28;20338;-69
2023/12/23 08:57:55;;;;;;;;;;;;;;;3.23;82.91;99412.06;4197980;28;20026;-68
2023/12/23 08:59:57;;;;;;;;;;;;;;;3.22;83.13;99423.72;4198009;28;20015;-68
2023/12/23 09:02:02;;;;;;;;;;;;;;;3.23;82.99;99419.25;4197397;28;19924;-69
2023/12/23 09:04:04;;;;;;;;;;;;;;;3.24;82.92;99416.41;4197877;28;20395;-69
2023/12/23 09:06:06;;;;;;;;;;;;;;;3.24;83.14;99424.41;4198165;28;19996;-68
2023/12/23 09:08:07;;;;;;;;;;;;;;;3.25;82.89;99418.06;4198215;28;19952;-68
2023/12/23 09:10:11;;;;;;;;;;;;;;;3.27;83.13;99419.75;4196215;28;19928;-68
2023/12/23 09:12:13;;;;;;;;;;;;;;;3.26;83.33;99418.91;4195773;28;20388;-69
2023/12/23 09:14:15;;;;;;;;;;;;;;;3.26;83.13;99429.59;4195691;28;20000;-69
2023/12/23 09:16:17;;;;;;;;;;;;;;;3.27;83.24;99415.22;4196958;28;20019;-68
2023/12/23 09:18:19;;;;;;;;;;;;;;;3.28;83.12;99416.91;4196031;28;20470;-69
2023/12/23 09:20:21;;;;;;;;;;;;;;;3.25;83.13;99414.56;4196768;28;20362;-69
2023/12/23 09:22:23;;;;;;;;;;;;;;;3.26;83.37;99413.59;4196911;28;20433;-69
2023/12/23 09:24:25;;;;;;;;;;;;;;;3.25;83.34;99422.56;4197326;28;20011;-69
2023/12/23 09:26:28;;;;;;;;;;;;;;;3.25;83.24;99415.41;4196470;28;20032;-69
2023/12/23 09:28:30;;;;;;;;;;;;;;;3.27;83.50;99419.75;4197288;28;20023;-69
2023/12/23 09:30:32;;;;;;;;;;;;;;;3.28;83.57;99418.75;4196075;28;20411;-69
2023/12/23 09:32:33;;;;;;;;;;;;;;;3.27;83.46;99415.22;4196101;28;20023;-69
2023/12/23 09:34:36;;;;;;;;;;;;;;;3.25;83.48;99428.72;4195346;28;20374;-69
2023/12/23 09:36:38;;;;;;;;;;;;;;;3.26;83.50;99418.91;4196631;28;20015;-69
2023/12/23 09:38:40;;;;;;;;;;;;;;;3.25;83.30;99423.41;4196966;28;19995;-68
2023/12/23 09:40:42;;;;;;;;;;;;;;;3.24;83.34;99427.09;4196257;28;20011;-68
2023/12/23 09:42:45;;;;;;;;;;;;;;;3.26;83.41;99426.94;4192644;28;19960;-68
2023/12/23 09:44:46;;;;;;;;;;;;;;;3.24;83.36;99424.41;4195179;28;19967;-68
2023/12/23 09:46:49;;;;;;;;;;;;;;;3.25;83.47;99431.41;4194369;28;20493;-69
2023/12/23 09:48:50;;;;;;;;;;;;;;;3.24;83.25;99432.44;4195838;28;20019;-68
2023/12/23 09:50:52;;;;;;;;;;;;;;;3.24;83.39;99429.75;4193974;28;20019;-68
2023/12/23 09:52:53;;;;;;;;;;;;;;;3.21;83.69;99431.88;4196264;28;20027;-68
2023/12/23 09:54:55;;;;;;;;;;;;;;;3.19;83.85;99432.06;4196916;28;19951;-68
2023/12/23 09:56:57;;;;;;;;;;;;;;;3.21;84.00;99430.06;4196657;28;20389;-68
2023/12/23 09:58:59;;;;;;;;;;;;;;;3.18;83.58;99424.22;4194349;28;20016;-68
2023/12/23 10:01:01;;;;;;;;;;;;;;;3.16;83.97;99435.03;4194613;28;19971;-67
2023/12/23 10:03:02;;;;;;;;;;;;;;;3.16;84.20;99437.72;4196056;28;20020;-68
2023/12/23 10:05:04;;;;;;;;;;;;;;;3.16;84.06;99440.38;4196457;28;19956;-68
2023/12/23 10:07:06;;;;;;;;;;;;;;;3.15;84.29;99435.19;4196072;28;19974;-68
2023/12/23 10:09:08;;;;;;;;;;;;;;;3.15;84.33;99432.53;4197129;28;19959;-68
2023/12/23 10:11:10;;;;;;;;;;;;;;;3.13;84.63;99424.69;4196613;28;19968;-68
2023/12/23 10:13:12;;;;;;;;;;;;;;;3.11;84.54;99424.03;4196189;28;20023;-69
2023/12/23 10:15:16;;;;;;;;;;;;;;;3.12;84.89;99431.03;4195608;28;20050;-69
2023/12/23 10:17:18;;;;;;;;;;;;;;;3.11;84.71;99434.69;4196825;28;20019;-69
2023/12/23 10:19:20;;;;;;;;;;;;;;;3.09;84.86;99436.69;4197116;28;20003;-68
2023/12/23 10:21:22;;;;;;;;;;;;;;;3.08;85.35;99435.00;4196140;28;19979;-69
2023/12/23 10:23:24;;;;;;;;;;;;;;;3.08;85.48;99436.84;4195787;28;19989;-69
2023/12/23 10:25:26;;;;;;;;;;;;;;;3.06;85.50;99434.34;4191247;28;20039;-69
2023/12/23 10:27:28;;;;;;;;;;;;;;;3.08;85.26;99437.69;4193799;28;20048;-69
2023/12/23 10:29:31;;;;;;;;;;;;;;;3.05;85.59;99438.84;4193730;28;20453;-68
2023/12/23 10:31:50;;;;;;;;;;;;;;;3.04;85.47;99444.31;4193444;28;19974;-69
2023/12/23 10:33:52;;;;;;;;;;;;;;;3.04;85.64;99437.19;4192502;28;20081;-69
2023/12/23 10:35:57;;;;;;;;;;;;;;;3.02;85.69;99431.16;4193962;28;20023;-69
2023/12/23 10:38:00;;;;;;;;;;;;;;;2.99;86.21;99431.47;4195692;28;19975;-69
2023/12/23 10:40:03;;;;;;;;;;;;;;;2.95;86.13;99419.47;4193518;28;20027;-70
2023/12/23 10:42:05;;;;;;;;;;;;;;;2.96;86.45;99429.16;4191939;28;20015;-70
2023/12/23 10:44:07;;;;;;;;;;;;;;;2.94;86.64;99420.44;4194135;28;19982;-69
2023/12/23 10:46:09;;;;;;;;;;;;;;;2.88;86.77;99416.63;4191308;28;20370;-70